Prospect, Connecticut
Current Conditions -  °F | °C
As of 3:53 PM on Sunday 23 Nov 2014 (Local Time) from KMMK Reporting Station
Clear Clear  
Wind Chill: 51°   Ceiling: Unl
Heat Index: 51°   Visibility: 10mi
Dew Point: 29°   Wind: 5mph
Humidity: 43%   Direction: 180°S
Pressure: 30.13"   Gusts: NA
Location:  41.5°N, 72.98°W
Report Text: KMMK 232053Z AUTO 18004KT 10SM CLR 11/M02 A3013 RMK AO2 SLP204 T01061017 53001 TSNO $
Loading
Personal Weather Stations






























Interactive Weather Map New forecast layout! Learn more

10-Day Weather Forecast

Advertisements
Track Severe Weather on mobile